Time;durP1;ratioP1;P1;durP2;ratioP2;P2;SDS_P1;SDS_P2;PMS_P1;PMS_P2;Temp;Humidity;BMP_temperature;BMP_pressure;BME280_temperature;BME280_humidity;BME280_pressure;Samples;Min_cycle;Max_cycle;Signal;HPM_P1;HPM_P2
2022/05/08 00:02:20;;;;;;;6.38;3.83;;;11.20;99.90;;;;;;4999832;28;20041;-75
2022/05/08 00:04:49;;;;;;;7.70;3.70;;;11.10;99.90;;;;;;4999092;28;20029;-76
2022/05/08 00:07:16;;;;;;;7.65;4.25;;;11.10;99.90;;;;;;5014580;28;20136;-75
2022/05/08 00:09:43;;;;;;;7.50;3.88;;;11.00;99.90;;;;;;4998372;28;20034;-76
2022/05/08 00:12:11;;;;;;;6.05;3.70;;;11.00;99.90;;;;;;5013530;28;20536;-75
2022/05/08 00:14:37;;;;;;;5.45;3.42;;;11.00;99.90;;;;;;4999587;28;20429;-77
2022/05/08 00:17:03;;;;;;;8.80;4.18;;;10.90;99.90;;;;;;4998677;28;20465;-76
2022/05/08 00:19:28;;;;;;;6.60;3.97;;;10.90;99.90;;;;;;4999467;28;20053;-74
2022/05/08 00:21:54;;;;;;;8.45;4.07;;;10.90;99.90;;;;;;5013366;28;20030;-75
2022/05/08 00:24:20;;;;;;;9.50;3.65;;;10.90;99.90;;;;;;4998143;28;20030;-75
2022/05/08 00:26:45;;;;;;;6.85;3.90;;;11.00;99.90;;;;;;4998182;28;20783;-75
2022/05/08 00:29:12;;;;;;;8.70;4.20;;;10.90;99.90;;;;;;4998174;28;20038;-76
2022/05/08 00:31:41;;;;;;;7.13;3.03;;;10.90;99.90;;;;;;4999793;28;20533;-76
2022/05/08 00:34:07;;;;;;;8.30;3.83;;;10.90;99.90;;;;;;4998541;28;20029;-76
2022/05/08 00:36:32;;;;;;;10.10;4.07;;;10.90;99.90;;;;;;5014079;28;20026;-77
2022/05/08 00:38:58;;;;;;;6.22;4.15;;;10.80;99.90;;;;;;4998430;28;20117;-75
2022/05/08 00:41:24;;;;;;;3.75;2.53;;;10.80;99.90;;;;;;4998764;28;20421;-75
2022/05/08 00:43:49;;;;;;;5.82;3.20;;;10.90;99.90;;;;;;5013246;28;20044;-75
2022/05/08 00:46:16;;;;;;;7.38;3.42;;;10.80;99.90;;;;;;4998402;28;20034;-76
2022/05/08 00:48:44;;;;;;;9.68;4.93;;;10.80;99.90;;;;;;4981565;28;20030;-76
2022/05/08 00:51:11;;;;;;;8.38;3.85;;;10.70;99.90;;;;;;5001328;28;20030;-75
2022/05/08 00:53:43;;;;;;;5.15;2.60;;;10.80;99.90;;;;;;5002158;28;20044;-76
2022/05/08 00:56:10;;;;;;;5.00;2.20;;;10.80;99.90;;;;;;5017762;28;20065;-76
2022/05/08 00:58:38;;;;;;;9.10;4.10;;;10.80;99.90;;;;;;5001709;28;20038;-75
2022/05/08 01:01:05;;;;;;;8.10;4.05;;;10.70;99.90;;;;;;5001876;28;20088;-75
2022/05/08 01:03:31;;;;;;;8.02;3.92;;;10.60;99.90;;;;;;5002705;28;20105;-75
2022/05/08 01:05:57;;;;;;;6.38;3.67;;;10.70;99.90;;;;;;5003547;28;20029;-77
2022/05/08 01:08:25;;;;;;;11.68;5.22;;;10.70;99.90;;;;;;5002298;28;20092;-76
2022/05/08 01:10:53;;;;;;;6.15;4.32;;;10.50;99.90;;;;;;5001509;28;20648;-75
2022/05/08 01:13:18;;;;;;;7.68;3.40;;;10.60;99.90;;;;;;4984792;28;20438;-75
2022/05/08 01:15:48;;;;;;;8.00;4.82;;;10.60;99.90;;;;;;4983642;28;20100;-76
2022/05/08 01:18:16;;;;;;;10.13;3.83;;;10.50;99.90;;;;;;5018008;28;20033;-75
2022/05/08 01:20:43;;;;;;;5.65;2.90;;;10.50;99.90;;;;;;4979177;28;20037;-75
2022/05/08 01:23:11;;;;;;;10.65;3.88;;;10.50;99.90;;;;;;5017353;28;20049;-75
2022/05/08 01:25:54;;;;;;;9.80;3.97;;;10.50;99.90;;;;;;5002385;28;20026;-75
2022/05/08 01:28:21;;;;;;;10.65;3.72;;;10.40;99.90;;;;;;4983071;28;20523;-74
2022/05/08 01:30:50;;;;;;;6.57;3.33;;;10.50;99.90;;;;;;5001864;28;20099;-75
2022/05/08 01:33:17;;;;;;;10.05;4.53;;;10.50;99.90;;;;;;5001994;28;20037;-76
2022/05/08 01:35:44;;;;;;;8.23;4.13;;;10.40;99.90;;;;;;5017818;28;20509;-76
2022/05/08 01:38:12;;;;;;;10.15;4.75;;;10.40;99.90;;;;;;5001011;28;20121;-74
2022/05/08 01:40:38;;;;;;;8.60;3.83;;;10.40;99.90;;;;;;4977151;28;20372;-75
2022/05/08 01:43:03;;;;;;;10.50;4.43;;;10.40;99.90;;;;;;5000554;28;20052;-76
2022/05/08 01:45:30;;;;;;;10.98;3.83;;;10.40;99.90;;;;;;5001745;28;20018;-74
2022/05/08 01:50:40;;;;;;;12.90;4.22;;;10.30;99.90;;;;;;5000843;28;20033;-75
2022/05/08 01:53:06;;;;;;;8.95;3.95;;;10.30;99.90;;;;;;5000697;28;20188;-75
2022/05/08 01:55:32;;;;;;;10.48;3.35;;;10.30;99.90;;;;;;5001521;28;20637;-75
2022/05/08 01:57:58;;;;;;;10.40;4.32;;;10.30;99.90;;;;;;5000744;28;20041;-75
2022/05/08 02:00:25;;;;;;;7.97;3.20;;;10.20;99.90;;;;;;5001205;28;20026;-75
2022/05/08 02:02:51;;;;;;;11.88;3.30;;;10.10;99.90;;;;;;5015703;28;20402;-74
2022/05/08 02:05:18;;;;;;;9.20;2.95;;;10.10;99.90;;;;;;5001971;28;20755;-75
2022/05/08 02:07:45;;;;;;;9.85;2.78;;;10.20;99.90;;;;;;5001183;28;20045;-75
2022/05/08 02:10:12;;;;;;;8.45;1.88;;;10.20;99.90;;;;;;4999375;28;20030;-75
2022/05/08 02:12:38;;;;;;;10.48;2.88;;;10.20;99.90;;;;;;5000253;28;20026;-77
2022/05/08 02:15:06;;;;;;;8.90;2.10;;;10.20;99.90;;;;;;4999207;28;20038;-74
2022/05/08 02:17:32;;;;;;;12.48;2.17;;;10.20;99.90;;;;;;4999756;28;20088;-75
2022/05/08 02:19:58;;;;;;;9.07;1.83;;;10.10;99.90;;;;;;5001234;28;20663;-75
